Time;durP1;ratioP1;P1;durP2;ratioP2;P2;SDS_P1;SDS_P2;PMS_P1;PMS_P2;Temp;Humidity;BMP_temperature;BMP_pressure;BME280_temperature;BME280_humidity;BME280_pressure;Samples;Min_cycle;Max_cycle;Signal;HPM_P1;HPM_P2
2023/01/03 00:01:18;;;;;;;3.90;1.85;;;;;;;;;;5071039;28;20090;-86
2023/01/03 00:03:45;;;;;;;5.53;1.90;;;;;;;;;;5070286;28;20036;-85
2023/01/03 00:06:22;;;;;;;5.57;1.42;;;4.20;99.90;;;;;;5073716;28;20092;-85
2023/01/03 00:08:48;;;;;;;4.90;1.50;;;4.20;99.90;;;;;;5072733;28;20021;-85
2023/01/03 00:12:22;;;;;;;3.33;1.30;;;4.20;99.90;;;;;;5070626;28;20043;-84
2023/01/03 00:14:05;;;;;;;7.32;1.75;;;;;;;;;;5073263;28;20009;-84
2023/01/03 00:16:31;;;;;;;6.72;1.75;;;;;;;;;;5067668;28;20040;-84
2023/01/03 00:18:57;;;;;;;5.35;1.75;;;;;;;;;;5065698;28;20047;-84
2023/01/03 00:21:23;;;;;;;4.40;1.50;;;;;;;;;;5067902;28;20080;-84
2023/01/03 00:23:48;;;;;;;4.35;1.60;;;;;;;;;;5068207;28;20044;-84
2023/01/03 00:26:14;;;;;;;8.52;1.77;;;;;;;;;;5067843;28;20040;-84
2023/01/03 00:28:44;;;;;;;6.15;1.65;;;4.30;99.90;;;;;;5066272;28;20029;-84
2023/01/03 00:31:13;;;;;;;4.00;1.83;;;4.40;99.90;;;;;;5066341;28;20089;-85
2023/01/03 00:33:42;;;;;;;4.85;2.22;;;4.50;99.90;;;;;;5069412;28;20029;-83
2023/01/03 00:36:09;;;;;;;4.28;1.73;;;4.60;99.90;;;;;;5069713;28;20505;-85
2023/01/03 00:38:38;;;;;;;5.50;1.80;;;4.60;99.90;;;;;;5067104;28;20028;-84
2023/01/03 00:41:12;;;;;;;5.80;1.83;;;4.60;99.90;;;;;;5066598;28;20047;-83
2023/01/03 00:43:39;;;;;;;7.13;2.03;;;4.60;99.90;;;;;;5062236;28;20071;-85
2023/01/03 00:46:07;;;;;;;5.00;1.70;;;;;;;;;;5061730;28;20045;-85
2023/01/03 00:48:33;;;;;;;5.10;1.52;;;;;;;;;;5060361;28;20021;-85
2023/01/03 00:51:11;;;;;;;8.30;1.45;;;4.90;99.90;;;;;;5060356;28;20021;-85
2023/01/03 00:53:43;;;;;;;8.43;1.55;;;4.80;99.90;;;;;;5060781;28;20029;-85
2023/01/03 00:56:15;;;;;;;8.45;2.35;;;4.90;99.90;;;;;;5061719;28;20474;-86
2023/01/03 00:58:47;;;;;;;7.15;1.90;;;5.00;99.90;;;;;;5061504;28;20032;-85
2023/01/03 01:01:20;;;;;;;7.10;2.13;;;5.00;99.90;;;;;;5059433;28;20028;-85
2023/01/03 01:03:58;;;;;;;7.40;1.88;;;8.20;99.90;;;;;;5060084;28;20029;-84
2023/01/03 01:06:27;;;;;;;7.65;2.63;;;5.10;99.90;;;;;;5059630;28;20037;-84
2023/01/03 01:08:54;;;;;;;9.32;1.90;;;6.50;99.90;;;;;;5058521;28;20088;-84
2023/01/03 01:11:21;;;;;;;5.85;1.60;;;5.00;99.90;;;;;;5058396;28;20108;-85
2023/01/03 01:13:47;;;;;;;5.75;1.77;;;5.00;99.90;;;;;;5058153;28;20028;-84
2023/01/03 01:16:19;;;;;;;5.07;1.65;;;4.90;99.90;;;;;;5058192;28;20029;-84
2023/01/03 01:18:49;;;;;;;6.10;1.50;;;4.90;99.90;;;;;;5058479;28;20021;-85
2023/01/03 01:21:18;;;;;;;7.53;2.33;;;4.80;99.90;;;;;;5059612;28;20032;-86
2023/01/03 01:23:44;;;;;;;5.50;2.22;;;4.80;99.90;;;;;;5058325;28;20382;-85
2023/01/03 01:26:13;;;;;;;4.03;1.88;;;4.70;99.90;;;;;;5058423;28;20031;-86
2023/01/03 01:28:39;;;;;;;5.22;1.60;;;;;;;;;;5060020;28;20037;-85
2023/01/03 01:31:06;;;;;;;5.53;2.08;;;4.60;99.90;;;;;;5059991;28;20025;-84
2023/01/03 01:33:35;;;;;;;7.40;1.80;;;4.50;99.90;;;;;;5062294;28;20025;-84
2023/01/03 01:36:16;;;;;;;7.20;1.40;;;4.20;99.90;;;;;;5065820;28;20025;-84
2023/01/03 01:38:43;;;;;;;5.97;1.85;;;4.40;99.90;;;;;;5066889;28;20021;-84
2023/01/03 01:46:45;;;;;;;9.02;2.53;;;4.20;99.90;;;;;;5073929;28;20079;-84
2023/01/03 01:49:16;;;;;;;2.95;1.17;;;4.10;99.90;;;;;;5079043;28;20017;-84
2023/01/03 01:51:42;;;;;;;3.33;1.02;;;4.50;99.90;;;;;;5075034;28;20036;-84
2023/01/03 01:54:09;;;;;;;3.75;1.70;;;3.90;99.90;;;;;;5079548;28;20021;-85
2023/01/03 01:56:42;;;;;;;5.68;2.10;;;3.80;99.90;;;;;;5077180;28;20025;-83
2023/01/03 01:59:11;;;;;;;4.35;1.85;;;3.70;99.90;;;;;;5080467;28;20059;-84
2023/01/03 02:01:38;;;;;;;5.13;2.00;;;3.70;99.90;;;;;;5080557;28;20041;-83
2023/01/03 02:04:16;;;;;;;12.02;2.00;;;3.70;99.90;;;;;;5079983;28;20021;-84
2023/01/03 02:06:43;;;;;;;2.47;1.48;;;;;;;;;;5080856;28;20050;-84
2023/01/03 02:09:09;;;;;;;4.35;2.03;;;;;;;;;;5081206;28;20089;-84
2023/01/03 02:15:06;;;;;;;6.20;1.90;;;3.40;99.90;;;;;;5081357;28;20088;-85
2023/01/03 02:17:57;;;;;;;8.38;2.00;;;3.40;99.90;;;;;;5080814;28;20044;-83
2023/01/03 02:20:39;;;;;;;8.13;2.47;;;3.30;99.90;;;;;;5080607;28;20029;-86
2023/01/03 02:23:43;;;;;;;5.75;2.65;;;3.20;99.90;;;;;;5081226;28;20048;-85
2023/01/03 02:26:47;;;;;;;4.60;2.05;;;3.20;99.90;;;;;;5080156;28;20032;-87
2023/01/03 02:29:34;;;;;;;4.15;1.23;;;;;;;;;;5080426;28;20101;-84
2023/01/03 02:32:01;;;;;;;3.35;1.85;;;3.10;99.90;;;;;;5080159;28;20040;-85
2023/01/03 02:34:56;;;;;;;5.88;2.85;;;3.00;99.90;;;;;;5080389;28;20013;-89
2023/01/03 02:37:22;;;;;;;4.53;1.70;;;;;;;;;;5080299;28;20013;-89
2023/01/03 02:40:13;;;;;;;5.97;1.95;;;2.80;99.90;;;;;;5080383;28;20018;-88
2023/01/03 02:45:47;;;;;;;5.38;2.10;;;2.80;99.90;;;;;;5080340;28;20020;-85
2023/01/03 02:48:36;;;;;;;11.05;2.63;;;2.80;99.90;;;;;;5079846;28;20036;-88
2023/01/03 02:51:11;;;;;;;5.60;2.25;;;2.70;99.90;;;;;;5080151;28;20076;-89
2023/01/03 02:53:43;;;;;;;5.80;2.25;;;2.70;99.90;;;;;;5080101;28;20012;-88
2023/01/03 02:56:14;;;;;;;5.75;2.28;;;2.80;99.90;;;;;;5079846;28;20009;-90
2023/01/03 02:58:45;;;;;;;9.50;2.70;;;2.80;99.90;;;;;;5080254;28;20044;-85
2023/01/03 03:01:11;;;;;;;10.80;4.25;;;;;;;;;;5079704;28;20110;-85
2023/01/03 03:03:42;;;;;;;12.15;3.85;;;3.00;99.90;;;;;;5079740;28;20056;-86
2023/01/03 03:06:09;;;;;;;9.25;3.92;;;;;;;;;;5079701;28;20005;-85
2023/01/03 03:08:37;;;;;;;12.30;4.25;;;;;;;;;;5079587;28;20011;-86
2023/01/03 03:14:18;;;;;;;12.45;4.78;;;3.50;99.90;;;;;;5013623;28;20053;-76
2023/01/03 03:16:53;;;;;;;11.93;4.95;;;3.50;99.90;;;;;;5016163;28;20022;-76
2023/01/03 03:25:20;;;;;;;12.07;5.13;;;3.80;99.90;;;;;;5016096;28;20056;-76
2023/01/03 03:30:41;;;;;;;39.28;7.47;;;4.00;99.90;;;;;;5015818;28;20041;-76
2023/01/03 03:33:10;;;;;;;62.75;8.05;;;5.90;99.90;;;;;;5013949;28;20037;-76
2023/01/03 03:35:53;;;;;;;104.95;9.13;;;4.10;99.90;;;;;;5013888;28;20378;-76
2023/01/03 03:38:32;;;;;;;121.45;9.27;;;4.10;99.90;;;;;;5014143;28;20477;-76
2023/01/03 03:44:59;;;;;;;113.65;8.02;;;4.20;99.90;;;;;;5015060;28;20037;-76
2023/01/03 03:47:02;;;;;;;61.70;6.93;;;4.20;99.90;;;;;;5014841;28;20400;-76
2023/01/03 03:49:37;;;;;;;78.50;7.32;;;4.30;99.90;;;;;;5015540;28;20412;-76
2023/01/03 03:52:07;;;;;;;112.13;8.98;;;4.20;99.90;;;;;;5015697;28;20084;-77
2023/01/03 03:54:36;;;;;;;39.58;6.30;;;4.20;99.90;;;;;;5014528;28;20041;-76
2023/01/03 03:57:43;;;;;;;66.00;6.95;;;4.20;99.90;;;;;;5014819;28;20079;-76
2023/01/03 04:00:15;;;;;;;85.57;7.03;;;4.20;99.90;;;;;;5014481;28;20038;-76
2023/01/03 04:02:45;;;;;;;52.05;7.18;;;4.20;99.90;;;;;;5015080;28;20037;-76
2023/01/03 04:05:15;;;;;;;82.28;6.32;;;4.20;99.90;;;;;;5015005;28;20493;-76
2023/01/03 04:07:41;;;;;;;124.53;8.15;;;4.10;99.90;;;;;;5015318;28;20022;-76
2023/01/03 04:10:10;;;;;;;80.97;6.38;;;;;;;;;;5014481;28;20045;-76
2023/01/03 04:12:36;;;;;;;178.98;9.07;;;4.00;99.90;;;;;;5014797;28;20481;-76
2023/01/03 04:15:08;;;;;;;124.47;8.23;;;4.10;99.90;;;;;;5014836;28;20022;-76
2023/01/03 04:17:34;;;;;;;68.30;6.82;;;4.00;99.90;;;;;;5014996;28;20026;-76
2023/01/03 04:20:05;;;;;;;111.85;8.80;;;4.00;99.90;;;;;;5014927;28;20029;-76
2023/01/03 04:22:34;;;;;;;55.33;6.50;;;4.10;99.90;;;;;;5015067;28;20432;-76
2023/01/03 04:24:59;;;;;;;72.07;8.65;;;4.00;99.90;;;;;;5015120;28;20022;-76
2023/01/03 04:27:25;;;;;;;40.13;7.45;;;4.10;99.90;;;;;;5015036;28;20040;-76
2023/01/03 04:29:57;;;;;;;56.20;7.95;;;4.10;99.90;;;;;;5014798;28;20581;-76
2023/01/03 04:32:23;;;;;;;38.30;7.22;;;4.10;99.90;;;;;;5014672;28;20030;-76
2023/01/03 04:34:49;;;;;;;47.75;7.70;;;4.10;99.90;;;;;;5014702;28;20564;-76
2023/01/03 04:37:17;;;;;;;47.78;8.25;;;4.10;99.90;;;;;;5015327;28;20030;-76
2023/01/03 04:39:43;;;;;;;57.58;8.00;;;4.10;99.90;;;;;;5015077;28;20030;-76
2023/01/03 04:44:56;;;;;;;54.05;8.82;;;4.10;99.90;;;;;;5015134;28;20555;-76
2023/01/03 04:47:21;;;;;;;34.40;8.77;;;4.80;99.90;;;;;;5014670;28;20040;-76
2023/01/03 04:49:47;;;;;;;36.00;7.78;;;;;;;;;;5014766;28;20022;-76
2023/01/03 04:52:17;;;;;;;41.67;9.10;;;4.10;99.90;;;;;;5013134;28;20065;-76
2023/01/03 04:54:43;;;;;;;36.60;10.30;;;4.10;99.90;;;;;;5014844;28;20022;-76
2023/01/03 04:57:09;;;;;;;39.85;9.52;;;4.10;99.90;;;;;;5014587;28;20370;-76
2023/01/03 04:59:35;;;;;;;36.22;9.45;;;4.10;99.90;;;;;;5012959;28;20030;-76
2023/01/03 05:02:01;;;;;;;27.80;8.68;;;4.00;99.90;;;;;;5014011;28;20100;-76
2023/01/03 05:04:28;;;;;;;35.88;10.15;;;4.10;99.90;;;;;;5012650;28;20036;-76
2023/01/03 05:06:54;;;;;;;33.92;9.48;;;4.00;99.90;;;;;;5014413;28;20037;-76
2023/01/03 05:09:20;;;;;;;29.98;10.55;;;4.00;99.90;;;;;;5012853;28;20072;-76
2023/01/03 05:11:45;;;;;;;28.80;10.13;;;4.00;99.90;;;;;;5014434;28;20030;-76
2023/01/03 05:14:11;;;;;;;32.40;9.93;;;4.00;99.90;;;;;;5012735;28;20030;-76
2023/01/03 05:16:37;;;;;;;25.67;11.63;;;4.00;99.90;;;;;;5014260;28;20076;-76
2023/01/03 05:19:02;;;;;;;24.80;10.25;;;4.00;99.90;;;;;;5014146;28;20025;-76
2023/01/03 05:27:02;;;;;;;26.73;10.52;;;3.90;99.90;;;;;;5018656;28;20075;-76
2023/01/03 05:29:28;;;;;;;25.35;10.75;;;3.90;99.90;;;;;;5016770;28;20028;-76
2023/01/03 05:31:54;;;;;;;25.38;11.48;;;3.90;99.90;;;;;;5017983;28;20064;-76
2023/01/03 05:34:20;;;;;;;27.42;11.77;;;3.80;99.90;;;;;;5017679;28;20481;-76
2023/01/03 05:36:45;;;;;;;21.77;10.85;;;4.00;99.90;;;;;;5016775;28;20026;-76
2023/01/03 05:39:11;;;;;;;21.98;9.95;;;3.80;99.90;;;;;;5017974;28;20052;-76
2023/01/03 05:44:21;;;;;;;19.83;10.45;;;3.70;99.90;;;;;;5017325;28;20515;-76
2023/01/03 05:46:47;;;;;;;22.38;9.75;;;3.60;99.90;;;;;;5017699;28;20014;-76
2023/01/03 05:49:12;;;;;;;19.23;9.80;;;3.50;99.90;;;;;;5017513;28;20029;-76
2023/01/03 05:51:38;;;;;;;21.73;10.50;;;3.50;99.90;;;;;;5017148;28;20500;-76
2023/01/03 05:54:04;;;;;;;18.58;8.85;;;3.40;99.90;;;;;;5017498;28;20026;-75
2023/01/03 05:56:30;;;;;;;23.10;9.75;;;3.40;99.90;;;;;;5019766;28;20086;-75
2023/01/03 05:58:56;;;;;;;21.10;9.98;;;3.30;99.90;;;;;;5022097;28;20056;-75
2023/01/03 06:01:25;;;;;;;24.77;9.90;;;3.30;99.90;;;;;;5021509;28;20080;-76
2023/01/03 06:03:51;;;;;;;23.02;9.85;;;3.30;99.90;;;;;;5021176;28;20057;-75
2023/01/03 06:06:16;;;;;;;19.95;10.15;;;3.20;99.90;;;;;;5021698;28;20091;-75
2023/01/03 06:08:42;;;;;;;25.17;10.02;;;3.10;99.90;;;;;;5021701;28;20025;-75
2023/01/03 06:11:10;;;;;;;19.27;8.82;;;3.10;99.90;;;;;;5022313;28;20022;-75
2023/01/03 06:13:36;;;;;;;19.17;9.57;;;3.10;99.90;;;;;;5021550;28;20034;-75
2023/01/03 06:18:49;;;;;;;20.50;9.60;;;3.00;99.90;;;;;;5022024;28;20036;-75
2023/01/03 06:21:15;;;;;;;20.77;9.30;;;3.00;99.90;;;;;;5020259;28;20389;-75
2023/01/03 06:23:40;;;;;;;27.60;10.75;;;3.00;99.90;;;;;;5020416;28;20389;-75
2023/01/03 06:26:06;;;;;;;21.65;9.82;;;3.00;99.90;;;;;;5050492;23;20569;-76
2023/01/03 06:28:31;;;;;;;22.92;9.38;;;3.00;99.90;;;;;;5035850;28;20017;-76
2023/01/03 06:30:57;;;;;;;20.55;10.65;;;3.00;99.90;;;;;;5036107;28;20392;-77
2023/01/03 06:33:23;;;;;;;20.35;9.13;;;3.10;99.90;;;;;;5036521;28;20081;-76
2023/01/03 06:35:48;;;;;;;19.95;9.57;;;3.10;99.90;;;;;;5035679;28;20033;-76
2023/01/03 06:38:14;;;;;;;21.70;9.88;;;3.20;99.90;;;;;;5036564;28;20100;-76
2023/01/03 06:40:46;;;;;;;21.48;10.27;;;3.20;99.90;;;;;;5036445;28;20052;-76
2023/01/03 06:43:12;;;;;;;23.52;9.38;;;3.20;99.90;;;;;;5036156;28;20075;-76
2023/01/03 06:53:52;;;;;;;20.75;8.95;;;3.50;99.90;;;;;;5037240;28;20455;-76
2023/01/03 06:56:18;;;;;;;19.58;8.50;;;3.60;99.90;;;;;;5034172;28;20017;-76
2023/01/03 06:58:43;;;;;;;19.40;8.40;;;3.70;99.90;;;;;;5036576;28;20087;-76
2023/01/03 07:01:11;;;;;;;20.63;9.20;;;3.60;99.90;;;;;;5035937;28;20033;-76
2023/01/03 07:03:37;;;;;;;15.52;7.68;;;3.70;99.90;;;;;;5035855;28;20451;-76
2023/01/03 07:06:02;;;;;;;16.30;8.10;;;3.70;99.90;;;;;;5037308;28;20014;-76
2023/01/03 07:08:28;;;;;;;13.65;7.50;;;3.80;99.90;;;;;;5036738;28;20021;-76
2023/01/03 07:10:54;;;;;;;19.77;8.63;;;3.80;99.90;;;;;;5036736;28;20029;-76
2023/01/03 07:16:03;;;;;;;18.65;8.00;;;3.90;99.90;;;;;;5036659;28;20040;-76
2023/01/03 07:18:30;;;;;;;16.95;7.45;;;3.90;99.90;;;;;;5036090;28;20022;-76
2023/01/03 07:20:56;;;;;;;12.77;6.50;;;4.00;99.90;;;;;;5036445;28;20037;-76
2023/01/03 07:23:21;;;;;;;14.90;7.70;;;4.00;99.90;;;;;;5036338;28;20113;-76
2023/01/03 07:25:47;;;;;;;13.30;7.13;;;4.00;99.90;;;;;;5034145;28;20079;-76
2023/01/03 07:28:14;;;;;;;17.73;6.85;;;4.10;99.90;;;;;;5034468;28;20091;-76
2023/01/03 07:30:44;;;;;;;20.98;8.38;;;4.10;99.90;;;;;;5035240;28;20075;-76
2023/01/03 07:33:11;;;;;;;14.35;7.78;;;4.10;99.90;;;;;;5035112;28;20395;-76
2023/01/03 07:35:37;;;;;;;15.55;6.60;;;4.10;99.90;;;;;;5034427;28;20401;-76
2023/01/03 07:38:04;;;;;;;14.98;6.88;;;4.10;99.90;;;;;;5034157;28;20025;-76
2023/01/03 07:40:30;;;;;;;15.02;7.20;;;4.20;99.90;;;;;;5035071;28;20034;-76
2023/01/03 07:45:41;;;;;;;17.67;6.65;;;4.20;99.90;;;;;;5035416;28;20090;-76
2023/01/03 07:48:06;;;;;;;14.25;6.68;;;4.20;99.90;;;;;;5035123;28;20041;-76
2023/01/03 07:50:35;;;;;;;17.10;7.10;;;4.30;99.90;;;;;;5034094;28;20021;-77
2023/01/03 07:53:01;;;;;;;14.00;6.65;;;4.30;99.90;;;;;;5034586;28;20029;-76
2023/01/03 07:55:27;;;;;;;14.38;6.55;;;4.30;99.90;;;;;;5034717;28;20028;-76
2023/01/03 07:57:54;;;;;;;13.38;6.50;;;4.40;99.90;;;;;;5035163;28;20022;-77
2023/01/03 08:00:20;;;;;;;13.70;6.38;;;4.50;99.90;;;;;;5035298;28;20111;-76
2023/01/03 08:02:46;;;;;;;17.55;6.80;;;4.50;99.90;;;;;;5033159;28;20037;-77
2023/01/03 08:05:11;;;;;;;11.73;5.38;;;4.50;99.90;;;;;;5034761;28;20022;-77
2023/01/03 08:07:37;;;;;;;14.82;6.70;;;4.50;99.90;;;;;;5034505;28;20045;-77
2023/01/03 08:15:31;;;;;;;12.60;6.13;;;4.40;99.90;;;;;;5034469;28;20041;-77
2023/01/03 08:17:56;;;;;;;12.20;6.05;;;4.40;99.90;;;;;;5032878;28;20030;-76
2023/01/03 08:20:22;;;;;;;12.93;5.55;;;4.40;99.90;;;;;;5033010;28;20025;-77
2023/01/03 08:22:47;;;;;;;12.60;5.97;;;4.40;99.90;;;;;;5032694;28;20017;-76
2023/01/03 08:25:13;;;;;;;13.38;6.28;;;4.40;99.90;;;;;;5032986;28;20100;-76
2023/01/03 08:27:39;;;;;;;16.05;5.70;;;4.40;99.90;;;;;;5034632;28;20544;-76
2023/01/03 08:30:05;;;;;;;12.65;5.43;;;4.50;99.90;;;;;;5034701;28;20048;-76
2023/01/03 08:32:32;;;;;;;14.63;6.10;;;4.50;99.90;;;;;;5035104;28;20018;-76
2023/01/03 08:34:58;;;;;;;14.77;5.82;;;4.60;99.90;;;;;;5032863;28;20013;-76
2023/01/03 08:37:26;;;;;;;14.05;5.68;;;4.70;99.90;;;;;;5035203;28;20414;-76
2023/01/03 08:39:56;;;;;;;17.10;5.93;;;4.70;99.90;;;;;;5034567;28;20021;-76
2023/01/03 08:42:22;;;;;;;17.50;6.38;;;4.80;99.90;;;;;;5033329;28;20024;-77
2023/01/03 08:44:54;;;;;;;14.63;6.50;;;4.80;99.90;;;;;;5033177;28;20109;-77
2023/01/03 08:47:20;;;;;;;15.65;6.55;;;4.90;99.90;;;;;;5032575;28;20033;-77
2023/01/03 08:49:45;;;;;;;12.10;5.95;;;5.00;99.90;;;;;;5034037;28;20029;-77
2023/01/03 08:52:13;;;;;;;13.23;5.72;;;5.00;99.90;;;;;;5034402;28;20036;-77
2023/01/03 08:54:39;;;;;;;12.73;6.30;;;5.00;99.90;;;;;;5033553;28;20400;-77
2023/01/03 08:57:05;;;;;;;14.23;5.57;;;5.10;99.90;;;;;;5033953;28;20029;-77
2023/01/03 08:59:31;;;;;;;15.30;5.95;;;5.10;99.90;;;;;;5034260;28;20028;-77
2023/01/03 09:01:58;;;;;;;15.18;6.85;;;5.20;99.90;;;;;;5032612;28;20476;-77
2023/01/03 09:04:24;;;;;;;11.93;5.43;;;5.20;99.90;;;;;;5031937;28;20026;-77
2023/01/03 09:06:49;;;;;;;13.93;7.10;;;5.20;99.90;;;;;;5033075;28;20028;-77
2023/01/03 09:09:15;;;;;;;16.63;6.85;;;5.30;99.90;;;;;;5033192;28;20134;-77
2023/01/03 09:11:40;;;;;;;15.10;5.97;;;6.00;99.90;;;;;;5033470;28;20026;-78
2023/01/03 09:14:06;;;;;;;18.10;6.68;;;5.30;99.90;;;;;;5033753;28;20056;-78
2023/01/03 09:16:31;;;;;;;18.00;6.60;;;5.40;99.90;;;;;;5031905;28;20388;-77
2023/01/03 09:18:57;;;;;;;16.38;7.05;;;5.50;99.90;;;;;;5033125;28;20032;-77
2023/01/03 09:21:22;;;;;;;14.27;6.63;;;5.50;99.90;;;;;;5033122;28;20469;-78
2023/01/03 09:23:48;;;;;;;21.65;8.48;;;5.60;99.90;;;;;;5033135;28;20163;-77
2023/01/03 09:26:14;;;;;;;22.45;9.23;;;5.60;99.90;;;;;;5032296;28;20057;-77
2023/01/03 09:28:39;;;;;;;22.88;9.38;;;5.80;99.90;;;;;;5033337;28;20021;-77
2023/01/03 09:31:05;;;;;;;21.73;8.13;;;5.80;99.90;;;;;;5031649;28;20132;-77
2023/01/03 09:33:30;;;;;;;26.13;9.85;;;6.00;99.90;;;;;;5033801;28;20029;-77
2023/01/03 09:35:56;;;;;;;23.27;9.68;;;6.00;99.90;;;;;;5033411;28;20030;-77
2023/01/03 09:38:22;;;;;;;24.23;9.27;;;6.10;99.90;;;;;;5032541;28;20026;-77
2023/01/03 09:40:56;;;;;;;29.67;9.98;;;6.10;99.90;;;;;;5032969;28;20087;-77
2023/01/03 09:43:25;;;;;;;26.70;10.40;;;6.10;99.90;;;;;;5032905;28;20065;-79
2023/01/03 09:45:57;;;;;;;29.45;10.98;;;6.10;99.90;;;;;;5032950;28;20029;-77
2023/01/03 09:48:36;;;;;;;29.60;10.38;;;6.20;99.90;;;;;;5033130;28;20018;-77
2023/01/03 09:51:02;;;;;;;27.23;10.88;;;6.20;99.90;;;;;;5031957;28;20022;-77
2023/01/03 10:05:20;;;;;;;32.88;10.63;;;6.40;99.90;;;;;;5033459;28;20092;-75
2023/01/03 10:08:06;;;;;;;33.53;12.18;;;6.40;99.90;;;;;;5035188;28;20425;-75
2023/01/03 10:10:50;;;;;;;29.75;10.88;;;6.50;99.90;;;;;;5036034;28;20025;-76
2023/01/03 10:13:40;;;;;;;29.30;10.90;;;6.50;99.90;;;;;;5034762;28;20037;-75
2023/01/03 10:16:23;;;;;;;31.42;12.45;;;6.50;99.90;;;;;;5036732;28;20116;-75
2023/01/03 10:19:26;;;;;;;31.33;10.27;;;6.60;99.90;;;;;;5034843;28;20395;-79
2023/01/03 10:22:02;;;;;;;32.10;11.18;;;6.70;99.90;;;;;;5036359;28;20083;-79
2023/01/03 10:24:42;;;;;;;34.85;11.00;;;6.70;99.90;;;;;;5036544;28;20411;-78
2023/01/03 10:27:17;;;;;;;31.23;10.23;;;6.70;99.90;;;;;;5036283;28;20044;-77
2023/01/03 10:29:48;;;;;;;26.52;10.48;;;6.80;99.90;;;;;;5035982;28;20026;-77
2023/01/03 10:32:51;;;;;;;32.55;11.88;;;6.80;99.90;;;;;;5035008;28;20041;-78
2023/01/03 10:35:22;;;;;;;37.83;10.90;;;6.80;99.90;;;;;;5036237;28;20052;-76
2023/01/03 10:37:53;;;;;;;41.30;12.50;;;6.90;99.90;;;;;;5035687;28;20032;-75
2023/01/03 10:40:19;;;;;;;30.25;12.43;;;6.90;99.90;;;;;;5035570;28;20029;-76
2023/01/03 10:42:45;;;;;;;29.65;10.18;;;6.90;99.90;;;;;;5035339;28;20420;-76
2023/01/03 10:45:16;;;;;;;28.30;11.25;;;;;;;;;;5035559;28;20392;-76
2023/01/03 10:47:41;;;;;;;28.50;10.43;;;6.90;99.90;;;;;;5034409;28;20442;-75
2023/01/03 10:50:22;;;;;;;30.55;10.80;;;7.00;99.90;;;;;;5036290;28;20029;-75
2023/01/03 10:52:58;;;;;;;26.65;10.25;;;7.00;99.90;;;;;;5034932;28;20029;-76
2023/01/03 10:55:25;;;;;;;37.03;10.90;;;7.00;99.90;;;;;;5034173;28;20064;-76
2023/01/03 10:58:00;;;;;;;29.63;9.98;;;7.00;99.90;;;;;;5035240;28;20542;-75
2023/01/03 11:00:36;;;;;;;28.40;10.43;;;7.00;99.90;;;;;;5035251;28;20029;-76
2023/01/03 11:03:08;;;;;;;26.60;10.20;;;7.10;99.90;;;;;;5035209;28;20029;-76
2023/01/03 11:05:34;;;;;;;23.00;9.60;;;7.10;99.90;;;;;;5035138;28;20022;-77
2023/01/03 11:08:10;;;;;;;33.90;11.77;;;7.20;99.90;;;;;;5035289;28;20022;-77
2023/01/03 11:10:47;;;;;;;24.75;10.63;;;7.20;99.90;;;;;;5035134;28;20025;-77
2023/01/03 11:13:29;;;;;;;38.40;11.50;;;7.30;99.90;;;;;;5034101;28;20029;-77
2023/01/03 11:15:57;;;;;;;28.92;10.32;;;7.30;99.90;;;;;;5035123;28;20033;-77
2023/01/03 11:18:26;;;;;;;32.63;12.03;;;7.30;99.90;;;;;;5033490;28;20488;-77
2023/01/03 11:21:36;;;;;;;27.83;10.38;;;7.30;99.90;;;;;;5034949;28;20268;-77
2023/01/03 11:24:23;;;;;;;25.80;10.50;;;7.30;99.90;;;;;;4996366;28;20081;-77
2023/01/03 11:26:50;;;;;;;22.25;9.18;;;7.30;99.90;;;;;;5034761;28;20035;-77
2023/01/03 11:29:46;;;;;;;24.98;8.93;;;7.40;99.90;;;;;;5034487;28;20025;-77
2023/01/03 11:32:25;;;;;;;30.98;11.25;;;10.00;99.90;;;;;;5034614;28;20554;-77
2023/01/03 11:35:09;;;;;;;23.33;9.23;;;7.50;99.90;;;;;;5034489;28;20120;-77
2023/01/03 11:38:07;;;;;;;28.08;9.18;;;7.50;99.90;;;;;;5033137;28;20040;-77
2023/01/03 11:40:44;;;;;;;27.85;9.38;;;7.50;99.90;;;;;;4990359;28;20041;-76
2023/01/03 11:43:28;;;;;;;27.98;8.75;;;7.60;99.90;;;;;;5034214;28;20029;-77
2023/01/03 11:46:21;;;;;;;22.05;9.40;;;7.70;99.90;;;;;;5034432;28;20057;-76
2023/01/03 11:49:06;;;;;;;25.17;9.55;;;7.70;99.90;;;;;;5034089;28;20025;-76
2023/01/03 11:52:00;;;;;;;30.92;9.18;;;7.60;99.90;;;;;;5033215;28;20076;-76
2023/01/03 11:54:35;;;;;;;23.27;9.68;;;7.60;99.90;;;;;;5034010;28;20033;-77
2023/01/03 11:57:11;;;;;;;32.47;9.75;;;7.70;99.90;;;;;;5034063;28;20048;-77
2023/01/03 11:59:40;;;;;;;21.80;10.25;;;;;;;;;;5034509;28;20022;-77
2023/01/03 12:02:26;;;;;;;24.52;10.05;;;7.70;99.90;;;;;;5034621;28;20032;-77
2023/01/03 12:05:40;;;;;;;20.65;9.15;;;7.70;99.90;;;;;;5033314;28;20166;-77
2023/01/03 12:08:12;;;;;;;25.73;9.93;;;7.70;99.90;;;;;;5020173;28;20045;-77
2023/01/03 12:11:05;;;;;;;26.08;9.93;;;7.90;99.90;;;;;;5033980;28;20022;-76
2023/01/03 12:13:38;;;;;;;26.02;11.32;;;7.90;99.90;;;;;;5039302;28;20033;-76
2023/01/03 12:16:32;;;;;;;27.83;10.70;;;7.90;99.90;;;;;;5040388;28;20021;-76
2023/01/03 12:19:22;;;;;;;21.45;10.30;;;8.00;99.90;;;;;;5037536;28;20504;-75
2023/01/03 12:21:54;;;;;;;22.73;9.40;;;8.00;99.90;;;;;;5040810;28;20400;-76
2023/01/03 12:24:27;;;;;;;23.60;9.90;;;8.00;99.90;;;;;;5039604;28;20047;-76
2023/01/03 12:26:55;;;;;;;24.55;9.82;;;8.10;99.90;;;;;;5038419;28;20442;-77
2023/01/03 12:29:28;;;;;;;21.02;8.05;;;8.10;99.90;;;;;;5039117;28;20092;-76
2023/01/03 12:32:05;;;;;;;24.52;10.23;;;8.10;99.90;;;;;;5039267;28;20029;-76
2023/01/03 12:34:59;;;;;;;18.88;9.07;;;8.20;99.90;;;;;;5040033;28;20029;-76
2023/01/03 12:37:35;;;;;;;17.92;8.52;;;8.30;99.90;;;;;;5029610;28;20064;-76
2023/01/03 12:40:16;;;;;;;14.57;7.53;;;8.30;99.90;;;;;;5038316;28;20029;-76
2023/01/03 12:43:19;;;;;;;18.33;8.60;;;8.40;99.90;;;;;;5037317;28;20032;-77
2023/01/03 12:45:53;;;;;;;28.45;8.35;;;8.30;99.90;;;;;;5025382;28;20037;-81
2023/01/03 12:48:36;;;;;;;17.63;7.20;;;8.40;99.90;;;;;;5037023;28;20067;-82
2023/01/03 12:51:01;;;;;;;23.45;7.65;;;8.30;99.90;;;;;;5037042;28;20022;-83
2023/01/03 12:53:50;;;;;;;19.63;7.55;;;8.50;99.90;;;;;;5037000;28;20033;-84
2023/01/03 12:56:46;;;;;;;14.05;6.25;;;8.70;99.90;;;;;;5037201;28;20033;-83
2023/01/03 12:59:38;;;;;;;12.65;7.07;;;8.60;99.90;;;;;;5035141;28;20030;-81
2023/01/03 13:02:29;;;;;;;14.80;7.45;;;8.50;99.90;;;;;;5035674;28;20033;-83
2023/01/03 13:05:08;;;;;;;19.35;5.60;;;8.50;99.90;;;;;;5036614;28;20463;-82
2023/01/03 13:07:35;;;;;;;13.40;7.00;;;8.50;99.90;;;;;;5036247;28;20018;-82
2023/01/03 13:10:07;;;;;;;10.85;4.38;;;8.50;99.90;;;;;;5035442;28;20033;-81
2023/01/03 13:12:34;;;;;;;8.63;3.97;;;8.50;99.90;;;;;;5035054;28;20025;-82
2023/01/03 13:15:15;;;;;;;39.55;5.35;;;8.50;99.90;;;;;;5035582;28;20049;-82
2023/01/03 13:17:43;;;;;;;7.97;3.80;;;8.40;99.90;;;;;;5036837;28;20034;-82
2023/01/03 13:20:28;;;;;;;9.25;4.18;;;8.40;99.90;;;;;;5035986;28;20049;-80
2023/01/03 13:23:20;;;;;;;7.13;3.78;;;8.50;99.90;;;;;;5035157;28;20507;-79
2023/01/03 13:26:09;;;;;;;11.73;3.47;;;8.50;99.90;;;;;;5035574;28;20067;-79
2023/01/03 13:28:39;;;;;;;8.68;3.83;;;8.50;99.90;;;;;;5038419;28;20033;-79
2023/01/03 13:31:13;;;;;;;9.38;3.72;;;8.60;99.90;;;;;;5035201;28;20025;-80
2023/01/03 13:34:20;;;;;;;11.07;3.30;;;9.00;99.90;;;;;;5035571;28;20032;-81
2023/01/03 13:37:08;;;;;;;7.32;2.95;;;8.60;99.90;;;;;;5035609;28;20448;-80
2023/01/03 13:39:48;;;;;;;9.10;2.78;;;8.70;99.90;;;;;;5036684;28;20033;-82
2023/01/03 13:42:42;;;;;;;10.90;4.10;;;8.60;99.90;;;;;;5037796;28;20036;-81
2023/01/03 13:45:29;;;;;;;7.75;2.95;;;8.70;99.90;;;;;;5039349;28;20519;-80
2023/01/03 13:47:56;;;;;;;11.18;2.67;;;8.80;99.90;;;;;;5041078;28;20025;-81
2023/01/03 13:50:27;;;;;;;4.60;2.05;;;8.90;99.90;;;;;;5046006;28;20081;-81
2023/01/03 13:53:29;;;;;;;6.68;1.30;;;8.90;99.90;;;;;;5040794;28;20116;-82
2023/01/03 13:56:00;;;;;;;4.30;1.80;;;9.00;99.90;;;;;;5039162;28;20025;-82
2023/01/03 13:58:31;;;;;;;4.78;1.30;;;8.90;99.90;;;;;;5044433;28;20010;-80
2023/01/03 14:01:16;;;;;;;6.20;2.05;;;8.90;99.90;;;;;;5046943;28;20108;-80
2023/01/03 14:04:00;;;;;;;9.13;2.95;;;8.90;99.90;;;;;;5041998;28;20030;-80
2023/01/03 14:06:44;;;;;;;5.35;2.17;;;8.80;99.90;;;;;;5040743;28;20041;-79
2023/01/03 14:09:12;;;;;;;4.82;2.33;;;8.80;99.90;;;;;;5040099;28;20492;-81
2023/01/03 14:11:43;;;;;;;9.73;1.60;;;8.70;99.90;;;;;;5040048;28;20017;-80
2023/01/03 14:14:13;;;;;;;3.33;2.03;;;8.60;99.90;;;;;;5040953;28;20033;-81
2023/01/03 14:16:46;;;;;;;6.93;2.55;;;8.60;99.90;;;;;;5038947;28;20025;-80
2023/01/03 14:19:22;;;;;;;7.72;2.15;;;8.50;99.90;;;;;;5038942;28;20035;-81
2023/01/03 14:21:59;;;;;;;12.38;1.95;;;8.50;99.90;;;;;;5038874;28;20018;-81
2023/01/03 14:24:34;;;;;;;9.27;2.47;;;8.50;99.90;;;;;;5038879;28;20032;-80
2023/01/03 14:27:15;;;;;;;6.22;1.65;;;8.00;99.90;;;;;;5041022;28;20041;-80
2023/01/03 14:29:46;;;;;;;5.43;2.28;;;8.40;99.90;;;;;;5047606;28;20043;-80
2023/01/03 14:32:38;;;;;;;4.47;1.60;;;8.40;99.90;;;;;;5048193;28;20077;-80